sensor_id;sensor_type;location;lat;lon;timestamp;pressure;altitude;pressure_sealevel;temperature;humidity
40205;BME280;26963;42.666;23.366;2023-11-22T00:00:36;94230.38;;;9.63;62.85
40205;BME280;26963;42.666;23.366;2023-11-22T00:03:02;94244.66;;;9.59;62.87
40205;BME280;26963;42.666;23.366;2023-11-22T00:05:27;94168.47;;;9.16;63.13
40205;BME280;26963;42.666;23.366;2023-11-22T00:07:53;94239.91;;;9.56;62.68
40205;BME280;26963;42.666;23.366;2023-11-22T00:10:18;94137.06;;;8.99;62.92
40205;BME280;26963;42.666;23.366;2023-11-22T00:12:45;94183.16;;;9.27;62.74
40205;BME280;26963;42.666;23.366;2023-11-22T00:15:10;94189.34;;;9.37;63.11
40205;BME280;26963;42.666;23.366;2023-11-22T00:17:37;94217.53;;;9.66;62.80
40205;BME280;26963;42.666;23.366;2023-11-22T00:20:04;94216.66;;;9.56;62.49
40205;BME280;26963;42.666;23.366;2023-11-22T00:22:32;94211.81;;;9.58;62.50
40205;BME280;26963;42.666;23.366;2023-11-22T00:24:59;94228.47;;;9.78;62.50
40205;BME280;26963;42.666;23.366;2023-11-22T00:27:27;94149.19;;;9.42;62.32
40205;BME280;26963;42.666;23.366;2023-11-22T00:29:53;94211.56;;;9.91;61.85
40205;BME280;26963;42.666;23.366;2023-11-22T00:32:18;94189.94;;;9.79;61.72
40205;BME280;26963;42.666;23.366;2023-11-22T00:34:47;94184.84;;;9.91;61.69
40205;BME280;26963;42.666;23.366;2023-11-22T00:37:13;94211.34;;;10.10;61.13
40205;BME280;26963;42.666;23.366;2023-11-22T00:39:39;94237.31;;;10.10;61.25
40205;BME280;26963;42.666;23.366;2023-11-22T00:42:05;94166.03;;;9.74;61.36
40205;BME280;26963;42.666;23.366;2023-11-22T00:44:31;94239.00;;;10.06;61.61
40205;BME280;26963;42.666;23.366;2023-11-22T00:46:56;94198.03;;;9.88;61.81
40205;BME280;26963;42.666;23.366;2023-11-22T00:49:23;94237.13;;;10.06;61.51
40205;BME280;26963;42.666;23.366;2023-11-22T00:51:49;94217.00;;;10.09;61.50
40205;BME280;26963;42.666;23.366;2023-11-22T00:54:16;94227.66;;;10.00;61.63
40205;BME280;26963;42.666;23.366;2023-11-22T00:56:42;94184.72;;;9.96;61.79
40205;BME280;26963;42.666;23.366;2023-11-22T00:59:07;94166.09;;;9.60;61.61
40205;BME280;26963;42.666;23.366;2023-11-22T01:01:34;94189.81;;;9.84;62.17
40205;BME280;26963;42.666;23.366;2023-11-22T01:03:59;94185.22;;;9.76;61.96
40205;BME280;26963;42.666;23.366;2023-11-22T01:06:25;94235.00;;;9.94;61.70
40205;BME280;26963;42.666;23.366;2023-11-22T01:08:50;94197.84;;;9.84;62.19
40205;BME280;26963;42.666;23.366;2023-11-22T01:11:16;94214.16;;;10.05;61.52
40205;BME280;26963;42.666;23.366;2023-11-22T01:13:42;94175.88;;;9.87;61.44
40205;BME280;26963;42.666;23.366;2023-11-22T01:16:10;94123.41;;;9.69;61.34
40205;BME280;26963;42.666;23.366;2023-11-22T01:18:36;94159.53;;;9.89;60.95
40205;BME280;26963;42.666;23.366;2023-11-22T01:21:02;94174.47;;;10.21;61.02
40205;BME280;26963;42.666;23.366;2023-11-22T01:23:31;94166.91;;;10.23;60.57
40205;BME280;26963;42.666;23.366;2023-11-22T01:25:58;94129.66;;;9.87;60.59
40205;BME280;26963;42.666;23.366;2023-11-22T01:28:24;94187.44;;;10.37;60.67
40205;BME280;26963;42.666;23.366;2023-11-22T01:30:50;94187.44;;;10.37;60.36
40205;BME280;26963;42.666;23.366;2023-11-22T01:33:15;94125.66;;;10.07;60.15
40205;BME280;26963;42.666;23.366;2023-11-22T01:35:41;94129.25;;;10.02;60.21
40205;BME280;26963;42.666;23.366;2023-11-22T01:38:07;94188.91;;;10.43;60.30
40205;BME280;26963;42.666;23.366;2023-11-22T01:40:33;94183.69;;;10.38;60.10
40205;BME280;26963;42.666;23.366;2023-11-22T01:42:59;94171.13;;;10.47;60.50
40205;BME280;26963;42.666;23.366;2023-11-22T01:45:25;94162.00;;;10.48;60.00
40205;BME280;26963;42.666;23.366;2023-11-22T01:47:52;94026.09;;;9.52;60.03
40205;BME280;26963;42.666;23.366;2023-11-22T01:50:18;94157.56;;;10.43;60.18
40205;BME280;26963;42.666;23.366;2023-11-22T01:52:45;94118.59;;;10.11;59.91
40205;BME280;26963;42.666;23.366;2023-11-22T01:55:12;94166.41;;;10.44;59.90
40205;BME280;26963;42.666;23.366;2023-11-22T01:57:39;94095.44;;;9.98;60.01
40205;BME280;26963;42.666;23.366;2023-11-22T02:00:05;94180.25;;;10.46;60.53
40205;BME280;26963;42.666;23.366;2023-11-22T02:02:36;94157.28;;;10.45;60.67
40205;BME280;26963;42.666;23.366;2023-11-22T02:05:01;94054.47;;;9.71;60.50
40205;BME280;26963;42.666;23.366;2023-11-22T02:07:27;94116.88;;;10.15;60.36
40205;BME280;26963;42.666;23.366;2023-11-22T02:09:53;94123.81;;;10.16;60.29
40205;BME280;26963;42.666;23.366;2023-11-22T02:12:19;94165.78;;;10.47;60.46
40205;BME280;26963;42.666;23.366;2023-11-22T02:14:45;94157.41;;;10.40;60.41
40205;BME280;26963;42.666;23.366;2023-11-22T02:17:12;94151.63;;;10.47;60.52
40205;BME280;26963;42.666;23.366;2023-11-22T02:19:37;94096.59;;;10.14;60.28
40205;BME280;26963;42.666;23.366;2023-11-22T02:22:03;94135.72;;;10.41;59.98
40205;BME280;26963;42.666;23.366;2023-11-22T02:24:29;94156.03;;;10.51;60.35
40205;BME280;26963;42.666;23.366;2023-11-22T02:26:55;94134.16;;;10.40;60.31
40205;BME280;26963;42.666;23.366;2023-11-22T02:29:21;94119.59;;;10.24;60.45
40205;BME280;26963;42.666;23.366;2023-11-22T02:31:47;94156.34;;;10.50;60.81
40205;BME280;26963;42.666;23.366;2023-11-22T02:34:15;94151.31;;;10.48;60.84
40205;BME280;26963;42.666;23.366;2023-11-22T02:36:47;94173.66;;;10.52;60.34
40205;BME280;26963;42.666;23.366;2023-11-22T02:39:12;94150.34;;;10.44;60.87
40205;BME280;26963;42.666;23.366;2023-11-22T02:41:41;94149.28;;;10.45;60.84
40205;BME280;26963;42.666;23.366;2023-11-22T02:44:07;94158.25;;;10.49;60.78
40205;BME280;26963;42.666;23.366;2023-11-22T02:46:33;94159.00;;;10.50;60.69
40205;BME280;26963;42.666;23.366;2023-11-22T02:48:59;94162.00;;;10.48;60.52
40205;BME280;26963;42.666;23.366;2023-11-22T02:51:25;94151.31;;;10.48;60.64
40205;BME280;26963;42.666;23.366;2023-11-22T02:53:51;94149.72;;;10.47;60.43
40205;BME280;26963;42.666;23.366;2023-11-22T02:56:17;94161.53;;;10.55;60.39
40205;BME280;26963;42.666;23.366;2023-11-22T02:58:43;94158.09;;;10.54;60.09
40205;BME280;26963;42.666;23.366;2023-11-22T03:01:09;94135.06;;;10.36;60.24
40205;BME280;26963;42.666;23.366;2023-11-22T03:03:34;94146.09;;;10.43;60.42
40205;BME280;26963;42.666;23.366;2023-11-22T03:06:00;94158.84;;;10.46;60.82
40205;BME280;26963;42.666;23.366;2023-11-22T03:08:26;94132.81;;;10.29;60.63
40205;BME280;26963;42.666;23.366;2023-11-22T03:10:52;94100.81;;;10.06;60.46
40205;BME280;26963;42.666;23.366;2023-11-22T03:13:18;94150.50;;;10.39;60.68
40205;BME280;26963;42.666;23.366;2023-11-22T03:15:46;94169.41;;;10.51;60.86
40205;BME280;26963;42.666;23.366;2023-11-22T03:18:12;94167.53;;;10.52;60.58
40205;BME280;26963;42.666;23.366;2023-11-22T03:20:38;94157.91;;;10.42;60.74
40205;BME280;26963;42.666;23.366;2023-11-22T03:23:04;94151.59;;;10.38;60.81
40205;BME280;26963;42.666;23.366;2023-11-22T03:25:30;94115.13;;;10.10;60.95
40205;BME280;26963;42.666;23.366;2023-11-22T03:27:55;94138.94;;;10.29;60.33
40205;BME280;26963;42.666;23.366;2023-11-22T03:30:21;94112.78;;;10.09;60.55
40205;BME280;26963;42.666;23.366;2023-11-22T03:32:47;94171.13;;;10.47;60.55
40205;BME280;26963;42.666;23.366;2023-11-22T03:35:16;94144.91;;;10.26;60.59
40205;BME280;26963;42.666;23.366;2023-11-22T03:37:42;94171.47;;;10.54;60.38
40205;BME280;26963;42.666;23.366;2023-11-22T03:40:08;94126.34;;;10.21;60.25
40205;BME280;26963;42.666;23.366;2023-11-22T03:42:38;94145.63;;;10.41;60.46
40205;BME280;26963;42.666;23.366;2023-11-22T03:45:05;94121.00;;;10.21;60.15
40205;BME280;26963;42.666;23.366;2023-11-22T03:47:31;94162.78;;;10.49;60.42
40205;BME280;26963;42.666;23.366;2023-11-22T03:49:58;94142.88;;;10.32;60.10
40205;BME280;26963;42.666;23.366;2023-11-22T03:52:25;94144.28;;;10.29;60.20
40205;BME280;26963;42.666;23.366;2023-11-22T03:54:52;94138.63;;;10.22;60.24
40205;BME280;26963;42.666;23.366;2023-11-22T03:57:18;94148.22;;;10.32;60.23
40205;BME280;26963;42.666;23.366;2023-11-22T03:59:43;94154.38;;;10.33;60.82
40205;BME280;26963;42.666;23.366;2023-11-22T04:02:09;94085.38;;;9.94;60.48
40205;BME280;26963;42.666;23.366;2023-11-22T04:04:36;94167.25;;;10.31;60.65
40205;BME280;26963;42.666;23.366;2023-11-22T04:07:03;94152.41;;;10.16;61.28
40205;BME280;26963;42.666;23.366;2023-11-22T04:09:28;94155.53;;;10.09;61.41
40205;BME280;26963;42.666;23.366;2023-11-22T04:11:54;94184.81;;;10.14;61.52
40205;BME280;26963;42.666;23.366;2023-11-22T04:14:20;94163.88;;;10.07;62.00
40205;BME280;26963;42.666;23.366;2023-11-22T04:16:47;94143.19;;;9.90;61.75
40205;BME280;26963;42.666;23.366;2023-11-22T04:19:12;94170.16;;;10.11;61.57
40205;BME280;26963;42.666;23.366;2023-11-22T04:21:41;94123.16;;;9.79;61.55
40205;BME280;26963;42.666;23.366;2023-11-22T04:24:07;94206.72;;;10.25;61.81
40205;BME280;26963;42.666;23.366;2023-11-22T04:26:33;94193.31;;;10.16;61.64
40205;BME280;26963;42.666;23.366;2023-11-22T04:28:58;94215.38;;;10.31;61.59
40205;BME280;26963;42.666;23.366;2023-11-22T04:31:26;94205.31;;;10.27;61.92
40205;BME280;26963;42.666;23.366;2023-11-22T04:33:51;94097.72;;;9.50;62.01
40205;BME280;26963;42.666;23.366;2023-11-22T04:36:18;94220.63;;;10.36;61.96
40205;BME280;26963;42.666;23.366;2023-11-22T04:38:43;94200.72;;;10.19;61.25
40205;BME280;26963;42.666;23.366;2023-11-22T04:41:09;94222.22;;;10.37;61.52
40205;BME280;26963;42.666;23.366;2023-11-22T04:43:34;94151.59;;;10.06;61.35
40205;BME280;26963;42.666;23.366;2023-11-22T04:46:00;94197.06;;;10.15;60.90
40205;BME280;26963;42.666;23.366;2023-11-22T04:48:26;94170.00;;;10.08;61.50
40205;BME280;26963;42.666;23.366;2023-11-22T04:50:51;94206.28;;;10.32;61.21
40205;BME280;26963;42.666;23.366;2023-11-22T04:53:19;94226.34;;;10.43;61.50
40205;BME280;26963;42.666;23.366;2023-11-22T04:55:44;94155.44;;;9.91;61.66
40205;BME280;26963;42.666;23.366;2023-11-22T04:58:10;94235.06;;;10.35;62.08
40205;BME280;26963;42.666;23.366;2023-11-22T05:00:36;94253.56;;;10.45;62.44
40205;BME280;26963;42.666;23.366;2023-11-22T05:03:02;94245.59;;;10.31;62.50
40205;BME280;26963;42.666;23.366;2023-11-22T05:05:27;94197.03;;;10.06;62.67
40205;BME280;26963;42.666;23.366;2023-11-22T05:07:53;94185.16;;;9.90;62.63
40205;BME280;26963;42.666;23.366;2023-11-22T05:10:19;94243.09;;;10.35;62.88
40205;BME280;26963;42.666;23.366;2023-11-22T05:12:45;94205.22;;;10.10;62.99
40205;BME280;26963;42.666;23.366;2023-11-22T05:15:10;94268.03;;;10.44;62.64
40205;BME280;26963;42.666;23.366;2023-11-22T05:17:36;94260.78;;;10.44;63.26
40205;BME280;26963;42.666;23.366;2023-11-22T05:20:04;94266.81;;;10.50;63.29
40205;BME280;26963;42.666;23.366;2023-11-22T05:22:30;94286.34;;;10.59;63.30
40205;BME280;26963;42.666;23.366;2023-11-22T05:24:56;94276.88;;;10.53;64.22
40205;BME280;26963;42.666;23.366;2023-11-22T05:27:22;94140.78;;;9.57;63.93
40205;BME280;26963;42.666;23.366;2023-11-22T05:29:47;94293.88;;;10.57;64.17
40205;BME280;26963;42.666;23.366;2023-11-22T05:32:16;94278.84;;;10.39;65.24
40205;BME280;26963;42.666;23.366;2023-11-22T05:34:42;94247.38;;;10.13;65.36
40205;BME280;26963;42.666;23.366;2023-11-22T05:37:08;94321.25;;;10.54;64.70
40205;BME280;26963;42.666;23.366;2023-11-22T05:39:34;94315.28;;;10.57;64.51
40205;BME280;26963;42.666;23.366;2023-11-22T05:41:59;94309.59;;;10.50;65.42
40205;BME280;26963;42.666;23.366;2023-11-22T05:44:26;94327.09;;;10.56;65.84
40205;BME280;26963;42.666;23.366;2023-11-22T05:46:51;94318.09;;;10.52;65.83
40205;BME280;26963;42.666;23.366;2023-11-22T05:49:17;94304.25;;;10.50;66.52
40205;BME280;26963;42.666;23.366;2023-11-22T05:51:43;94325.97;;;10.57;65.18
40205;BME280;26963;42.666;23.366;2023-11-22T05:54:09;94311.16;;;10.51;65.40
40205;BME280;26963;42.666;23.366;2023-11-22T05:56:37;94262.56;;;10.04;65.09
40205;BME280;26963;42.666;23.366;2023-11-22T05:59:03;94309.69;;;10.36;65.57
40205;BME280;26963;42.666;23.366;2023-11-22T06:01:29;94334.09;;;10.43;65.10
40205;BME280;26963;42.666;23.366;2023-11-22T06:03:55;94268.63;;;9.95;65.91
40205;BME280;26963;42.666;23.366;2023-11-22T06:06:21;94347.81;;;10.51;66.16
40205;BME280;26963;42.666;23.366;2023-11-22T06:08:47;94305.94;;;10.23;66.93
40205;BME280;26963;42.666;23.366;2023-11-22T06:11:13;94347.38;;;10.57;66.28
40205;BME280;26963;42.666;23.366;2023-11-22T06:13:41;94350.06;;;10.57;66.74
40205;BME280;26963;42.666;23.366;2023-11-22T06:16:08;94359.66;;;10.58;67.40
40205;BME280;26963;42.666;23.366;2023-11-22T06:18:34;94345.63;;;10.53;67.02
40205;BME280;26963;42.666;23.366;2023-11-22T06:21:07;94323.31;;;10.35;66.34
40205;BME280;26963;42.666;23.366;2023-11-22T06:23:32;94375.28;;;10.65;66.55
40205;BME280;26963;42.666;23.366;2023-11-22T06:25:58;94371.94;;;10.59;67.08
40205;BME280;26963;42.666;23.366;2023-11-22T06:28:23;94357.75;;;10.50;67.17
40205;BME280;26963;42.666;23.366;2023-11-22T06:30:49;94381.44;;;10.66;67.12
40205;BME280;26963;42.666;23.366;2023-11-22T06:33:15;94332.34;;;10.39;67.26
40205;BME280;26963;42.666;23.366;2023-11-22T06:35:41;94373.28;;;10.71;66.77
40205;BME280;26963;42.666;23.366;2023-11-22T06:38:08;94389.69;;;10.78;66.61
40205;BME280;26963;42.666;23.366;2023-11-22T06:40:34;94341.31;;;10.66;65.81
40205;BME280;26963;42.666;23.366;2023-11-22T06:42:59;94378.38;;;10.81;66.00
40205;BME280;26963;42.666;23.366;2023-11-22T06:45:25;94375.19;;;10.79;65.77
40205;BME280;26963;42.666;23.366;2023-11-22T06:47:51;94370.59;;;10.71;66.20
40205;BME280;26963;42.666;23.366;2023-11-22T06:50:16;94399.31;;;10.88;66.30
40205;BME280;26963;42.666;23.366;2023-11-22T06:52:42;94305.34;;;10.26;66.71
40205;BME280;26963;42.666;23.366;2023-11-22T06:55:11;94409.84;;;10.84;66.39
40205;BME280;26963;42.666;23.366;2023-11-22T06:57:37;94416.53;;;10.96;66.46
40205;BME280;26963;42.666;23.366;2023-11-22T07:00:04;94392.84;;;10.80;66.36
40205;BME280;26963;42.666;23.366;2023-11-22T07:02:31;94417.50;;;11.00;66.22
40205;BME280;26963;42.666;23.366;2023-11-22T07:04:57;94339.78;;;10.51;65.98
40205;BME280;26963;42.666;23.366;2023-11-22T07:07:25;94422.88;;;11.00;65.67
40205;BME280;26963;42.666;23.366;2023-11-22T07:09:50;94405.50;;;10.88;65.23
40205;BME280;26963;42.666;23.366;2023-11-22T07:12:16;94417.66;;;10.95;65.50
40205;BME280;26963;42.666;23.366;2023-11-22T07:14:42;94422.88;;;11.00;64.84
40205;BME280;26963;42.666;23.366;2023-11-22T07:17:08;94415.25;;;10.93;64.73
40205;BME280;26963;42.666;23.366;2023-11-22T07:19:34;94345.09;;;10.42;64.94
40205;BME280;26963;42.666;23.366;2023-11-22T07:22:06;94359.06;;;10.62;64.76
40205;BME280;26963;42.666;23.366;2023-11-22T07:24:47;94423.19;;;11.07;65.00
40205;BME280;26963;42.666;23.366;2023-11-22T07:27:15;94417.97;;;11.02;65.33
40205;BME280;26963;42.666;23.366;2023-11-22T07:29:42;94401.47;;;11.00;66.34
40205;BME280;26963;42.666;23.366;2023-11-22T07:32:08;94420.56;;;11.16;66.62
40205;BME280;26963;42.666;23.366;2023-11-22T07:34:34;94434.28;;;11.14;66.40
40205;BME280;26963;42.666;23.366;2023-11-22T07:37:01;94399.25;;;11.02;66.55
40205;BME280;26963;42.666;23.366;2023-11-22T07:39:27;94427.97;;;11.10;66.38
40205;BME280;26963;42.666;23.366;2023-11-22T07:41:54;94445.53;;;11.25;66.14
40205;BME280;26963;42.666;23.366;2023-11-22T07:44:23;94427.50;;;11.17;66.11
40205;BME280;26963;42.666;23.366;2023-11-22T07:46:49;94443.03;;;11.29;66.40
40205;BME280;26963;42.666;23.366;2023-11-22T07:49:17;94407.63;;;11.09;66.24
40205;BME280;26963;42.666;23.366;2023-11-22T07:51:46;94444.56;;;11.30;65.11
40205;BME280;26963;42.666;23.366;2023-11-22T07:54:11;94411.75;;;11.15;65.30
40205;BME280;26963;42.666;23.366;2023-11-22T07:56:41;94447.13;;;11.35;64.97
40205;BME280;26963;42.666;23.366;2023-11-22T07:59:11;94456.75;;;11.36;64.83
40205;BME280;26963;42.666;23.366;2023-11-22T08:01:37;94367.09;;;10.39;65.05
40205;BME280;26963;42.666;23.366;2023-11-22T08:04:03;94452.72;;;10.70;61.33
40205;BME280;26963;42.666;23.366;2023-11-22T08:06:31;94439.91;;;10.36;65.05
40205;BME280;26963;42.666;23.366;2023-11-22T08:08:58;94446.53;;;10.38;67.20
40205;BME280;26963;42.666;23.366;2023-11-22T08:11:30;94456.75;;;10.22;68.68
40205;BME280;26963;42.666;23.366;2023-11-22T08:13:57;94440.44;;;10.10;69.31
40205;BME280;26963;42.666;23.366;2023-11-22T08:16:25;94417.31;;;9.91;70.65
40205;BME280;26963;42.666;23.366;2023-11-22T08:18:51;94406.41;;;10.02;70.41
40205;BME280;26963;42.666;23.366;2023-11-22T08:21:17;94455.13;;;10.49;69.69
40205;BME280;26963;42.666;23.366;2023-11-22T08:23:45;94461.47;;;10.39;68.98
40205;BME280;26963;42.666;23.366;2023-11-22T08:26:12;94442.63;;;10.08;68.95
40205;BME280;26963;42.666;23.366;2023-11-22T08:28:38;94453.00;;;10.09;69.27
40205;BME280;26963;42.666;23.366;2023-11-22T08:31:04;94445.41;;;10.03;71.60
40205;BME280;26963;42.666;23.366;2023-11-22T08:33:34;94477.63;;;10.34;71.82
40205;BME280;26963;42.666;23.366;2023-11-22T08:36:00;94455.44;;;10.48;72.02
40205;BME280;26963;42.666;23.366;2023-11-22T08:38:26;94435.00;;;10.15;68.94
40205;BME280;26963;42.666;23.366;2023-11-22T08:40:52;94475.47;;;10.22;69.11
40205;BME280;26963;42.666;23.366;2023-11-22T08:43:17;94445.22;;;9.85;69.74
40205;BME280;26963;42.666;23.366;2023-11-22T08:45:48;94449.19;;;9.88;72.07
40205;BME280;26963;42.666;23.366;2023-11-22T08:48:17;94483.56;;;10.31;72.07
40205;BME280;26963;42.666;23.366;2023-11-22T08:50:46;94466.84;;;10.25;74.05
40205;BME280;26963;42.666;23.366;2023-11-22T08:53:16;94447.59;;;10.01;69.53
40205;BME280;26963;42.666;23.366;2023-11-22T08:55:44;94405.59;;;9.65;70.33
40205;BME280;26963;42.666;23.366;2023-11-22T08:58:12;94480.44;;;10.01;70.26
40205;BME280;26963;42.666;23.366;2023-11-22T09:00:37;94399.72;;;9.76;71.29
40205;BME280;26963;42.666;23.366;2023-11-22T09:03:03;94460.19;;;10.37;70.13
40205;BME280;26963;42.666;23.366;2023-11-22T09:05:29;94460.47;;;10.49;70.08
40205;BME280;26963;42.666;23.366;2023-11-22T09:07:55;94455.66;;;10.23;67.33
40205;BME280;26963;42.666;23.366;2023-11-22T09:10:24;94482.56;;;10.27;68.56
40205;BME280;26963;42.666;23.366;2023-11-22T09:12:50;94473.59;;;10.09;69.44
40205;BME280;26963;42.666;23.366;2023-11-22T09:15:16;94477.41;;;10.31;70.96
40205;BME280;26963;42.666;23.366;2023-11-22T09:17:44;94429.88;;;10.05;69.90
40205;BME280;26963;42.666;23.366;2023-11-22T09:20:13;94400.84;;;9.75;69.33
40205;BME280;26963;42.666;23.366;2023-11-22T09:22:48;94456.72;;;10.00;69.52
40205;BME280;26963;42.666;23.366;2023-11-22T09:27:43;94444.19;;;10.09;71.52
40205;BME280;26963;42.666;23.366;2023-11-22T09:30:13;94519.34;;;10.72;70.33
40205;BME280;26963;42.666;23.366;2023-11-22T09:32:45;94457.66;;;10.54;69.44
40205;BME280;26963;42.666;23.366;2023-11-22T09:35:17;94481.69;;;10.68;70.76
40205;BME280;26963;42.666;23.366;2023-11-22T09:37:42;94518.72;;;10.75;67.37
40205;BME280;26963;42.666;23.366;2023-11-22T09:40:12;94512.53;;;10.66;67.88
40205;BME280;26963;42.666;23.366;2023-11-22T09:42:43;94510.22;;;10.73;69.58
40205;BME280;26963;42.666;23.366;2023-11-22T09:45:12;94515.03;;;10.85;68.67
40205;BME280;26963;42.666;23.366;2023-11-22T09:47:37;94526.78;;;10.98;67.90
40205;BME280;26963;42.666;23.366;2023-11-22T09:50:04;94442.00;;;10.62;67.70
40205;BME280;26963;42.666;23.366;2023-11-22T09:52:33;94481.50;;;10.87;66.86
40205;BME280;26963;42.666;23.366;2023-11-22T09:55:02;94498.16;;;10.84;65.68
40205;BME280;26963;42.666;23.366;2023-11-22T09:57:29;94479.38;;;10.53;67.56
40205;BME280;26963;42.666;23.366;2023-11-22T09:59:57;94453.41;;;10.53;69.31
40205;BME280;26963;42.666;23.366;2023-11-22T10:02:23;94433.97;;;10.62;68.75
40205;BME280;26963;42.666;23.366;2023-11-22T10:04:53;94495.00;;;11.05;70.10
40205;BME280;26963;42.666;23.366;2023-11-22T10:07:19;94513.25;;;11.03;66.64
40205;BME280;26963;42.666;23.366;2023-11-22T10:09:45;94506.19;;;10.84;67.17
40205;BME280;26963;42.666;23.366;2023-11-22T10:12:19;94514.13;;;10.89;69.52
40205;BME280;26963;42.666;23.366;2023-11-22T10:14:47;94477.00;;;10.97;69.52
40205;BME280;26963;42.666;23.366;2023-11-22T10:17:15;94472.84;;;11.13;68.77
40205;BME280;26963;42.666;23.366;2023-11-22T10:19:42;94494.31;;;11.22;69.22
40205;BME280;26963;42.666;23.366;2023-11-22T10:22:08;94499.56;;;11.04;65.70
40205;BME280;26963;42.666;23.366;2023-11-22T10:24:35;94503.41;;;10.89;67.03
40205;BME280;26963;42.666;23.366;2023-11-22T10:27:02;94480.69;;;10.78;69.58
40205;BME280;26963;42.666;23.366;2023-11-22T10:29:28;94475.91;;;10.98;68.60
40205;BME280;26963;42.666;23.366;2023-11-22T10:31:54;94444.78;;;10.79;67.96
40205;BME280;26963;42.666;23.366;2023-11-22T10:34:21;94494.59;;;11.43;68.00
40205;BME280;26963;42.666;23.366;2023-11-22T10:36:47;94466.66;;;11.35;67.63
40205;BME280;26963;42.666;23.366;2023-11-22T10:39:22;94500.31;;;11.50;68.96
40205;BME280;26963;42.666;23.366;2023-11-22T10:41:49;94464.25;;;10.93;65.51
40205;BME280;26963;42.666;23.366;2023-11-22T10:44:19;94505.09;;;11.08;67.29
40205;BME280;26963;42.666;23.366;2023-11-22T10:46:47;94509.72;;;11.16;69.91
40205;BME280;26963;42.666;23.366;2023-11-22T10:49:12;94523.22;;;11.34;69.25
40205;BME280;26963;42.666;23.366;2023-11-22T10:51:39;94514.00;;;11.49;68.85
40205;BME280;26963;42.666;23.366;2023-11-22T10:54:07;94472.66;;;11.41;68.45
40205;BME280;26963;42.666;23.366;2023-11-22T10:56:39;94512.34;;;11.62;70.27
40205;BME280;26963;42.666;23.366;2023-11-22T10:59:11;94511.63;;;11.47;66.63
40205;BME280;26963;42.666;23.366;2023-11-22T11:01:42;94497.22;;;11.34;66.98
40205;BME280;26963;42.666;23.366;2023-11-22T11:04:11;94499.72;;;11.31;69.02
40205;BME280;26963;42.666;23.366;2023-11-22T11:06:46;94499.16;;;11.42;69.33
40205;BME280;26963;42.666;23.366;2023-11-22T11:09:18;94500.47;;;11.54;68.99
40205;BME280;26963;42.666;23.366;2023-11-22T11:11:46;94492.13;;;11.55;68.68
40205;BME280;26963;42.666;23.366;2023-11-22T11:14:13;94499.53;;;11.58;69.89
40205;BME280;26963;42.666;23.366;2023-11-22T11:16:41;94507.97;;;11.43;66.84
40205;BME280;26963;42.666;23.366;2023-11-22T11:19:14;94421.56;;;10.66;67.09
40205;BME280;26963;42.666;23.366;2023-11-22T11:21:40;94503.34;;;11.35;69.93
40205;BME280;26963;42.666;23.366;2023-11-22T11:24:06;94450.81;;;11.16;69.48
40205;BME280;26963;42.666;23.366;2023-11-22T11:26:32;94466.84;;;11.39;68.59
40205;BME280;26963;42.666;23.366;2023-11-22T11:29:02;94491.16;;;11.51;69.69
40205;BME280;26963;42.666;23.366;2023-11-22T11:31:38;94488.06;;;11.26;67.11
40205;BME280;26963;42.666;23.366;2023-11-22T11:34:07;94507.78;;;11.08;68.69
40205;BME280;26963;42.666;23.366;2023-11-22T11:36:33;94497.06;;;11.08;71.03
40205;BME280;26963;42.666;23.366;2023-11-22T11:39:06;94494.50;;;11.25;69.85
40205;BME280;26963;42.666;23.366;2023-11-22T11:41:35;94500.31;;;11.50;69.20
40205;BME280;26963;42.666;23.366;2023-11-22T11:44:07;94498.50;;;11.68;68.25
40205;BME280;26963;42.666;23.366;2023-11-22T11:46:33;94496.88;;;11.58;67.64
40205;BME280;26963;42.666;23.366;2023-11-22T11:48:59;94453.50;;;11.16;65.66
40205;BME280;26963;42.666;23.366;2023-11-22T11:51:28;94506.53;;;11.37;66.24
40205;BME280;26963;42.666;23.366;2023-11-22T11:53:54;94491.28;;;11.46;66.80
40205;BME280;26963;42.666;23.366;2023-11-22T11:56:20;94506.16;;;11.61;66.55
40205;BME280;26963;42.666;23.366;2023-11-22T11:58:47;94467.19;;;11.46;65.88
40205;BME280;26963;42.666;23.366;2023-11-22T12:01:19;94506.41;;;11.82;65.46
40205;BME280;26963;42.666;23.366;2023-11-22T12:03:49;94470.78;;;11.82;65.44
40205;BME280;26963;42.666;23.366;2023-11-22T12:06:18;94503.19;;;12.03;66.64
40205;BME280;26963;42.666;23.366;2023-11-22T12:08:45;94463.59;;;11.51;63.92
40205;BME280;26963;42.666;23.366;2023-11-22T12:11:15;94522.16;;;11.75;64.49
40205;BME280;26963;42.666;23.366;2023-11-22T12:13:43;94498.50;;;11.68;66.00
40205;BME280;26963;42.666;23.366;2023-11-22T12:16:16;94525.09;;;11.96;65.75
40205;BME280;26963;42.666;23.366;2023-11-22T12:18:47;94528.28;;;12.07;65.51
40205;BME280;26963;42.666;23.366;2023-11-22T12:21:17;94528.63;;;12.14;65.44
40205;BME280;26963;42.666;23.366;2023-11-22T12:23:44;94545.69;;;12.27;65.03
40205;BME280;26963;42.666;23.366;2023-11-22T12:26:14;94521.63;;;11.96;64.32
40205;BME280;26963;42.666;23.366;2023-11-22T12:28:41;94539.91;;;11.94;63.88
40205;BME280;26963;42.666;23.366;2023-11-22T12:31:10;94508.88;;;11.70;65.59
40205;BME280;26963;42.666;23.366;2023-11-22T12:33:36;94530.91;;;11.89;67.17
40205;BME280;26963;42.666;23.366;2023-11-22T12:36:03;94533.50;;;12.03;66.48
40205;BME280;26963;42.666;23.366;2023-11-22T12:38:29;94544.22;;;12.12;66.65
40205;BME280;26963;42.666;23.366;2023-11-22T12:40:58;94542.84;;;12.23;66.29
40205;BME280;26963;42.666;23.366;2023-11-22T12:43:24;94545.03;;;12.13;66.46
40205;BME280;26963;42.666;23.366;2023-11-22T12:46:05;94534.19;;;11.86;65.22
40205;BME280;26963;42.666;23.366;2023-11-22T12:48:38;94543.31;;;11.85;66.73
40205;BME280;26963;42.666;23.366;2023-11-22T12:51:15;94512.66;;;11.69;67.14